Archival Weather

Chicago O'Hare International

Chicago, Illinois (KORD)

Report from: Monday, January 23, 2023 3:51 AM CST
Current time: Thursday, July 18, 2024 8:54 PM CDT

Current weather – Weather history – Daily summaries
Weather forecast

Temperature-5.6°C (21.9°F)
Wind chill-11.3°C (11.7°F)
Dew point-7.8°C (18.0°F)
Winds 8 kts (4.1 m/s, 9.2 mph) West (270°)
Visibility8 mi. (12.9 km)
Clouds Ceiling: Overcast 800 ft. (244 m)
Altimeter30.01 in.Hg (1016 mB)
PrecipitiationTrace
Precip. events Snow ended 9:02 AM
Snow began 9:17 AM
Snow ended 9:46 AM
Relative humidity84 %
Density altitude-2,630 ft. (-802 m)
Sea-level pressure101.7 kPa (1017 mB, 30.04 in.Hg)
Remarks System requires maintenance
Automated weather observing station with precipitation discriminator
Flight conditions Instrument Meteorological Conditions
Raw dataKORD 230951Z 27008KT 8SM OVC008 M06/M08 A3001 RMK AO2 SNE02B17E46 SLP172 P0000 T10561078 $
An error has occurred. This application may no longer respond until reloaded. Reload 🗙